createdAt,value
2018-06-23T00:00:58.322Z,15.07
2018-06-23T00:03:26.456Z,18.60
2018-06-23T00:05:54.801Z,14.90
2018-06-23T00:08:23.235Z,14.33
2018-06-23T00:10:51.553Z,11.23
2018-06-23T00:13:20.900Z,25.60
2018-06-23T00:15:49.310Z,19.30
2018-06-23T00:18:17.649Z,14.57
2018-06-23T00:20:45.962Z,18.73
2018-06-23T00:23:14.515Z,18.90
2018-06-23T00:26:00.311Z,9.43
2018-06-23T00:28:28.713Z,23.42
2018-06-23T00:30:56.864Z,17.37
2018-06-23T00:33:26.578Z,15.87
2018-06-23T00:35:54.961Z,16.63
2018-06-23T00:38:23.278Z,21.03
2018-06-23T00:40:51.350Z,14.43
2018-06-23T00:43:19.413Z,16.77
2018-06-23T00:45:47.890Z,13.33
2018-06-23T00:48:15.953Z,20.87
2018-06-23T00:50:44.296Z,15.17
2018-06-23T00:53:12.669Z,23.27
2018-06-23T00:55:40.972Z,19.67
2018-06-23T00:58:10.201Z,15.70
2018-06-23T01:00:38.309Z,14.70
2018-06-23T01:03:06.666Z,18.50
2018-06-23T01:05:34.771Z,20.83
2018-06-23T01:08:03.069Z,13.13
2018-06-23T01:10:31.353Z,20.37
2018-06-23T01:12:59.743Z,19.87
2018-06-23T01:15:28.062Z,17.63
2018-06-23T01:17:56.119Z,15.97
2018-06-23T01:20:24.228Z,15.10
2018-06-23T01:22:52.604Z,17.47
2018-06-23T01:25:20.914Z,20.27
2018-06-23T01:27:50.690Z,11.33
2018-06-23T01:30:22.312Z,16.95
2018-06-23T01:32:50.615Z,13.43
2018-06-23T01:35:18.717Z,16.97
2018-06-23T01:37:47.062Z,22.03
2018-06-23T01:40:18.020Z,15.40
2018-06-23T01:42:46.399Z,14.57
2018-06-23T01:45:14.798Z,15.87
2018-06-23T01:47:43.325Z,15.77
2018-06-23T01:50:11.680Z,20.60
2018-06-23T01:52:39.981Z,20.60
2018-06-23T01:55:08.025Z,13.80
2018-06-23T01:57:36.357Z,18.10
2018-06-23T02:00:04.490Z,13.93
2018-06-23T02:02:32.804Z,17.70
2018-06-23T02:05:01.184Z,17.77
2018-06-23T02:07:29.497Z,13.93
2018-06-23T02:09:58.716Z,14.27
2018-06-23T02:12:27.070Z,17.80
2018-06-23T02:15:11.361Z,12.67
2018-06-23T02:17:57.484Z,18.87
2018-06-23T02:20:43.187Z,11.17
2018-06-23T02:23:29.338Z,13.63
2018-06-23T02:26:15.658Z,14.00
2018-06-23T02:29:01.664Z,14.70
2018-06-23T02:31:47.588Z,14.63
2018-06-23T02:34:33.851Z,16.87
2018-06-23T02:37:02.176Z,15.50
2018-06-23T02:39:30.575Z,10.87
2018-06-23T02:41:58.581Z,12.87
2018-06-23T02:44:26.880Z,11.20
2018-06-23T02:46:55.244Z,14.93
2018-06-23T02:49:23.619Z,14.73
2018-06-23T02:51:51.883Z,14.07
2018-06-23T02:54:20.155Z,10.23
2018-06-23T02:56:49.323Z,14.77
2018-06-23T02:59:19.807Z,14.43
2018-06-23T03:01:48.245Z,12.33
2018-06-23T03:04:17.091Z,10.15
2018-06-23T03:06:45.181Z,9.17
2018-06-23T03:09:13.567Z,10.63
2018-06-23T03:11:41.963Z,9.73
2018-06-23T03:14:10.346Z,8.03
2018-06-23T03:16:38.759Z,11.60
2018-06-23T03:19:07.321Z,12.98
2018-06-23T03:21:35.662Z,10.57
2018-06-23T03:24:07.785Z,9.13
2018-06-23T03:26:36.260Z,6.57
2018-06-23T03:29:04.814Z,8.37
2018-06-23T03:31:33.162Z,12.73
2018-06-23T03:34:01.616Z,9.80
2018-06-23T03:36:29.922Z,11.77
2018-06-23T03:38:58.011Z,8.77
2018-06-23T03:41:27.316Z,11.00
2018-06-23T03:43:55.649Z,10.37
2018-06-23T03:46:26.483Z,9.00
2018-06-23T03:48:55.052Z,11.20
2018-06-23T03:51:23.426Z,11.12
2018-06-23T03:53:51.743Z,14.75
2018-06-23T03:56:20.837Z,12.23
2018-06-23T03:58:48.992Z,12.13
2018-06-23T04:01:17.368Z,14.67
2018-06-23T04:03:47.462Z,15.87
2018-06-23T04:06:15.799Z,17.50
2018-06-23T04:08:43.924Z,12.13
2018-06-23T04:11:12.394Z,11.67
2018-06-23T04:13:40.723Z,12.77
2018-06-23T04:16:08.787Z,10.27
2018-06-23T04:18:40.428Z,14.20
2018-06-23T04:21:08.830Z,14.50
2018-06-23T04:23:37.272Z,15.85
2018-06-23T04:26:06.228Z,14.57
2018-06-23T04:28:34.413Z,15.87
2018-06-23T04:31:02.805Z,13.67
2018-06-23T04:33:31.170Z,9.00
2018-06-23T04:35:59.477Z,9.40
2018-06-23T04:38:27.802Z,12.57
2018-06-23T04:40:58.198Z,11.33
2018-06-23T04:43:26.577Z,9.30
2018-06-23T04:45:55.791Z,12.53
2018-06-23T04:48:25.368Z,13.83
2018-06-23T04:50:53.713Z,10.90
2018-06-23T04:53:22.099Z,10.83
2018-06-23T04:55:51.210Z,23.40
2018-06-23T04:58:19.583Z,11.27
2018-06-23T05:00:48.111Z,15.97
2018-06-23T05:03:16.504Z,21.03
2018-06-23T05:05:44.573Z,14.07
2018-06-23T05:08:12.679Z,11.50
2018-06-23T05:10:41.091Z,11.23
2018-06-23T05:13:09.416Z,13.33
2018-06-23T05:15:37.579Z,19.33
2018-06-23T05:18:06.090Z,9.67
2018-06-23T05:20:34.459Z,18.50
2018-06-23T05:23:02.547Z,16.10
2018-06-23T05:25:30.934Z,13.17
2018-06-23T05:28:00.476Z,20.50
2018-06-23T05:30:30.006Z,10.33
2018-06-23T05:32:59.579Z,16.73
2018-06-23T05:35:27.988Z,12.27
2018-06-23T05:37:57.533Z,11.87
2018-06-23T05:40:25.964Z,12.40
2018-06-23T05:42:54.383Z,16.07
2018-06-23T05:45:22.704Z,11.93
2018-06-23T05:47:51.094Z,13.80
2018-06-23T05:50:19.539Z,17.70
2018-06-23T05:52:47.926Z,15.10
2018-06-23T05:55:16.384Z,14.47
2018-06-23T05:57:46.172Z,11.27
2018-06-23T06:00:14.270Z,12.33
2018-06-23T06:02:42.706Z,12.47
2018-06-23T06:05:12.055Z,11.73
2018-06-23T06:07:40.492Z,12.23
2018-06-23T06:10:09.887Z,14.00
2018-06-23T06:12:38.277Z,12.13
2018-06-23T06:15:06.395Z,12.03
2018-06-23T06:17:38.614Z,6.77
2018-06-23T06:20:08.659Z,9.50
2018-06-23T06:22:39.440Z,12.73
2018-06-23T06:25:09.273Z,11.48
2018-06-23T06:27:37.691Z,12.10
2018-06-23T06:30:06.517Z,9.20
2018-06-23T06:32:34.922Z,14.73
2018-06-23T06:35:03.335Z,7.47
2018-06-23T06:37:31.402Z,14.63
2018-06-23T06:39:59.535Z,12.83
2018-06-23T06:42:27.976Z,13.13
2018-06-23T06:44:56.113Z,13.03
2018-06-23T06:47:24.558Z,11.07
2018-06-23T06:49:52.912Z,9.67
2018-06-23T06:52:21.305Z,16.17
2018-06-23T06:54:49.747Z,8.63
2018-06-23T06:57:18.971Z,9.63
2018-06-23T06:59:47.364Z,14.80
2018-06-23T07:02:17.234Z,11.80
2018-06-23T07:04:45.324Z,12.63
2018-06-23T07:07:13.377Z,10.67
2018-06-23T07:09:42.434Z,10.93
2018-06-23T07:12:10.921Z,13.45
2018-06-23T07:14:39.444Z,15.40
2018-06-23T07:17:07.591Z,11.77
2018-06-23T07:19:36.007Z,10.27
2018-06-23T07:22:04.538Z,14.65
2018-06-23T07:24:32.921Z,13.35
2018-06-23T07:27:01.260Z,17.10
2018-06-23T07:29:29.636Z,19.03
2018-06-23T07:31:58.080Z,12.03
2018-06-23T07:34:26.519Z,12.23
2018-06-23T07:36:54.547Z,11.70
2018-06-23T07:39:22.687Z,8.33
2018-06-23T07:41:51.119Z,12.43
2018-06-23T07:44:19.508Z,15.90
2018-06-23T07:46:48.003Z,13.87
2018-06-23T07:49:16.417Z,10.07
2018-06-23T07:51:46.358Z,15.20
2018-06-23T07:54:14.514Z,11.05
2018-06-23T07:56:42.916Z,11.40
2018-06-23T07:59:11.018Z,13.05
2018-06-23T08:01:39.495Z,14.97
2018-06-23T08:04:07.833Z,11.03
2018-06-23T08:06:36.235Z,13.25
2018-06-23T08:09:10.028Z,10.97
2018-06-23T08:11:38.314Z,14.07
2018-06-23T08:14:06.658Z,13.57
2018-06-23T08:16:35.159Z,11.20
2018-06-23T08:19:03.574Z,12.77
2018-06-23T08:21:31.650Z,12.90
2018-06-23T08:24:01.496Z,15.33
2018-06-23T08:26:29.943Z,9.53
2018-06-23T08:28:58.260Z,8.47
2018-06-23T08:31:26.666Z,11.77
2018-06-23T08:33:55.081Z,11.70
2018-06-23T08:36:24.921Z,8.20
2018-06-23T08:38:53.382Z,14.03
2018-06-23T08:41:21.863Z,10.30
2018-06-23T08:43:50.246Z,11.93
2018-06-23T08:46:18.643Z,15.37
2018-06-23T08:48:47.059Z,13.40
2018-06-23T08:51:15.137Z,8.67
2018-06-23T08:53:43.272Z,10.23
2018-06-23T08:56:11.646Z,9.73
2018-06-23T08:58:43.341Z,14.40
2018-06-23T09:01:11.807Z,10.23
2018-06-23T09:03:40.242Z,9.53
2018-06-23T09:06:08.617Z,13.17
2018-06-23T09:08:37.077Z,9.00
2018-06-23T09:11:05.197Z,16.23
2018-06-23T09:13:33.688Z,10.87
2018-06-23T09:16:01.798Z,8.77
2018-06-23T09:18:29.903Z,9.87
2018-06-23T09:20:58.261Z,9.57
2018-06-23T09:23:26.366Z,8.37
2018-06-23T09:25:55.009Z,13.83
2018-06-23T09:28:23.601Z,8.87
2018-06-23T09:30:52.279Z,9.85
2018-06-23T09:33:20.508Z,12.23
2018-06-23T09:35:48.895Z,13.73
2018-06-23T09:38:17.409Z,10.93
2018-06-23T09:40:45.523Z,11.80
2018-06-23T09:43:14.486Z,8.73
2018-06-23T09:45:42.864Z,9.30
2018-06-23T09:48:11.398Z,10.70
2018-06-23T09:50:40.392Z,7.73
2018-06-23T09:53:08.890Z,12.93
2018-06-23T09:55:37.283Z,9.97
2018-06-23T09:58:05.861Z,8.10
2018-06-23T10:00:34.293Z,9.53
2018-06-23T10:03:02.690Z,10.57
2018-06-23T10:05:31.140Z,7.73
2018-06-23T10:08:00.401Z,7.40
2018-06-23T10:10:30.461Z,8.53
2018-06-23T10:12:58.550Z,5.60
2018-06-23T10:15:26.982Z,10.23
2018-06-23T10:17:55.437Z,9.13
2018-06-23T10:20:24.754Z,9.58
2018-06-23T10:29:27.868Z,11.37
2018-06-23T10:31:57.814Z,9.80
2018-06-23T10:34:27.217Z,10.40
2018-06-23T10:37:08.846Z,8.57
2018-06-23T10:39:38.117Z,12.87
2018-06-23T10:42:06.688Z,10.60
2018-06-23T10:44:36.328Z,12.13
2018-06-23T10:47:05.023Z,11.27
2018-06-23T10:49:33.237Z,7.40
2018-06-23T10:52:03.107Z,10.50
2018-06-23T10:54:30.310Z,10.90
2018-06-23T10:57:00.248Z,10.97
2018-06-23T10:59:28.690Z,11.43
2018-06-23T11:01:59.684Z,11.13
2018-06-23T11:04:28.938Z,9.63
2018-06-23T11:07:08.052Z,7.87
2018-06-23T11:09:40.134Z,7.07
2018-06-23T11:12:38.946Z,9.47
2018-06-23T11:15:21.839Z,7.17
2018-06-23T11:18:11.845Z,8.50
2018-06-23T11:20:41.579Z,5.15
2018-06-23T11:23:10.400Z,7.17
2018-06-23T11:25:40.176Z,8.43
2018-06-23T11:28:10.141Z,10.68
2018-06-23T11:30:38.587Z,4.70
2018-06-23T11:33:08.201Z,6.35
2018-06-23T11:35:36.711Z,9.30
2018-06-23T11:38:06.765Z,8.40
2018-06-23T11:40:35.325Z,9.37
2018-06-23T11:43:03.472Z,7.67
2018-06-23T11:45:33.423Z,7.70
2018-06-23T11:48:05.071Z,9.80
2018-06-23T11:50:33.505Z,9.45
2018-06-23T11:53:11.824Z,5.13
2018-06-23T11:55:42.663Z,6.37
2018-06-23T11:58:12.188Z,6.97
2018-06-23T12:00:40.325Z,9.10
2018-06-23T12:03:11.096Z,5.17
2018-06-23T12:05:40.862Z,6.60
2018-06-23T12:08:25.349Z,8.43
2018-06-23T12:11:02.270Z,8.83
2018-06-23T12:13:30.777Z,11.75
2018-06-23T12:15:59.177Z,7.87
2018-06-23T12:18:27.682Z,8.48
2018-06-23T12:21:04.763Z,7.60
2018-06-23T12:23:32.945Z,6.22
2018-06-23T12:26:02.758Z,11.38
2018-06-23T12:28:31.223Z,6.87
2018-06-23T12:31:01.334Z,7.83
2018-06-23T12:33:29.807Z,8.23
2018-06-23T12:35:59.375Z,7.87
2018-06-23T12:38:30.778Z,5.50
2018-06-23T12:41:00.868Z,6.15
2018-06-23T12:47:40.464Z,7.40
2018-06-23T12:53:24.141Z,6.53
2018-06-23T12:59:19.889Z,5.78
2018-06-23T13:01:48.059Z,7.53
2018-06-23T13:07:08.598Z,4.28
2018-06-23T13:09:40.322Z,6.28
2018-06-23T13:12:10.031Z,6.15
2018-06-23T13:14:41.649Z,7.65
2018-06-23T13:17:10.260Z,4.42
2018-06-23T13:19:38.732Z,5.95
2018-06-23T13:22:07.270Z,6.25
2018-06-23T13:24:36.937Z,6.22
2018-06-23T13:27:05.625Z,12.68
2018-06-23T13:29:34.321Z,6.00
2018-06-23T13:32:02.756Z,17.40
2018-06-23T13:34:32.960Z,6.40
2018-06-23T13:37:01.545Z,6.03
2018-06-23T13:39:30.036Z,6.78
2018-06-23T13:41:58.504Z,10.03
2018-06-23T13:44:26.912Z,7.37
2018-06-23T13:46:55.400Z,6.13
2018-06-23T13:49:23.965Z,9.73
2018-06-23T13:51:53.885Z,6.92
2018-06-23T13:54:25.494Z,10.13
2018-06-23T13:56:53.733Z,8.13
2018-06-23T13:59:23.249Z,8.03
2018-06-23T14:01:51.677Z,10.50
2018-06-23T14:04:21.251Z,9.93
2018-06-23T14:06:52.547Z,12.57
2018-06-23T14:09:28.168Z,8.73
2018-06-23T14:11:56.937Z,9.73
2018-06-23T14:14:25.658Z,7.70
2018-06-23T14:16:54.371Z,11.37
2018-06-23T14:19:22.957Z,8.53
2018-06-23T14:21:51.401Z,8.50
2018-06-23T14:24:19.945Z,4.40
2018-06-23T14:26:48.430Z,12.60
2018-06-23T14:29:17.044Z,8.10
2018-06-23T14:31:45.757Z,10.90
2018-06-23T14:34:14.215Z,8.20
2018-06-23T14:36:42.394Z,8.30
2018-06-23T14:39:11.971Z,6.67
2018-06-23T14:42:24.444Z,7.57
2018-06-23T14:44:58.728Z,5.97
2018-06-23T14:47:28.581Z,8.87
2018-06-23T14:49:56.693Z,6.73
2018-06-23T14:52:25.213Z,8.10
2018-06-23T14:55:12.356Z,5.23
2018-06-23T14:57:42.649Z,7.30
2018-06-23T15:00:17.419Z,10.83
2018-06-23T15:02:47.189Z,8.97
2018-06-23T15:05:18.789Z,8.07
2018-06-23T15:07:47.179Z,6.93
2018-06-23T15:11:05.832Z,6.65
2018-06-23T15:13:37.041Z,8.90
2018-06-23T15:16:07.755Z,6.42
2018-06-23T15:18:36.940Z,4.03
2018-06-23T15:21:05.532Z,10.68
2018-06-23T15:23:33.915Z,3.85
2018-06-23T15:26:02.048Z,7.80
2018-06-23T15:28:30.417Z,7.55
2018-06-23T15:30:58.860Z,8.03
2018-06-23T15:33:27.292Z,7.30
2018-06-23T15:35:55.837Z,3.22
2018-06-23T15:38:24.319Z,6.58
2018-06-23T15:40:52.561Z,6.58
2018-06-23T15:43:20.870Z,7.83
2018-06-23T15:45:50.297Z,6.57
2018-06-23T15:48:18.732Z,7.25
2018-06-23T15:50:46.976Z,5.67
2018-06-23T15:53:15.662Z,13.80
2018-06-23T15:55:43.844Z,5.00
2018-06-23T15:58:12.253Z,4.05
2018-06-23T16:00:40.669Z,7.22
2018-06-23T16:03:09.276Z,3.70
2018-06-23T16:05:37.918Z,3.47
2018-06-23T16:08:06.349Z,5.03
2018-06-23T16:10:34.894Z,6.10
2018-06-23T16:13:07.750Z,4.97
2018-06-23T16:15:35.934Z,6.97
2018-06-23T16:18:04.796Z,6.37
2018-06-23T16:20:33.675Z,3.10
2018-06-23T16:23:02.406Z,6.55
2018-06-23T16:25:47.272Z,6.70
2018-06-23T16:28:15.470Z,3.92
2018-06-23T16:31:02.400Z,6.90
2018-06-23T16:33:50.829Z,7.63
2018-06-23T16:36:38.353Z,7.07
2018-06-23T16:39:07.491Z,6.67
2018-06-23T16:41:35.900Z,5.23
2018-06-23T16:44:07.383Z,5.07
2018-06-23T16:46:35.623Z,4.47
2018-06-23T16:49:04.099Z,7.30
2018-06-23T16:51:32.681Z,3.15
2018-06-23T16:54:23.583Z,5.25
2018-06-23T16:56:52.040Z,5.97
2018-06-23T16:59:20.192Z,4.35
2018-06-23T17:01:48.343Z,4.70
2018-06-23T17:06:57.003Z,6.62
2018-06-23T17:09:26.249Z,9.15
2018-06-23T17:11:54.908Z,6.85
2018-06-23T17:14:23.793Z,5.25
2018-06-23T17:16:52.864Z,5.35
2018-06-23T17:19:24.408Z,4.67
2018-06-23T17:21:52.813Z,4.55
2018-06-23T17:24:20.975Z,3.33
2018-06-23T17:26:49.196Z,6.17
2018-06-23T17:29:17.716Z,4.85
2018-06-23T17:31:46.148Z,6.00
2018-06-23T17:34:15.724Z,4.65
2018-06-23T17:36:44.784Z,5.42
2018-06-23T17:39:13.250Z,4.20
2018-06-23T17:41:41.467Z,1.70
2018-06-23T17:44:10.030Z,4.08
2018-06-23T17:46:40.916Z,4.35
2018-06-23T17:49:09.132Z,5.62
2018-06-23T17:51:37.542Z,2.62
2018-06-23T17:54:05.922Z,3.77
2018-06-23T17:56:34.261Z,4.67
2018-06-23T17:59:02.734Z,4.05
2018-06-23T18:01:31.268Z,4.12
2018-06-23T18:04:02.046Z,2.33
2018-06-23T18:06:31.366Z,6.17
2018-06-23T18:08:59.708Z,3.98
2018-06-23T18:11:28.879Z,2.55
2018-06-23T18:13:57.297Z,4.40
2018-06-23T18:16:25.652Z,3.52
2018-06-23T18:18:54.016Z,5.63
2018-06-23T18:21:22.498Z,2.57
2018-06-23T18:23:50.888Z,4.33
2018-06-23T18:26:19.303Z,2.73
2018-06-23T18:28:47.540Z,4.37
2018-06-23T18:31:16.688Z,2.23
2018-06-23T18:33:45.080Z,6.93
2018-06-23T18:36:18.841Z,2.83
2018-06-23T18:38:46.964Z,3.10
2018-06-23T18:41:16.901Z,3.20
2018-06-23T18:43:45.307Z,3.15
2018-06-23T18:46:18.229Z,3.70
2018-06-23T18:48:46.299Z,3.83
2018-06-23T18:51:15.770Z,3.20
2018-06-23T18:53:44.142Z,5.17
2018-06-23T18:56:15.732Z,3.23
2018-06-23T18:58:45.671Z,4.23
2018-06-23T19:01:14.122Z,4.20
2018-06-23T19:03:44.502Z,3.00
2018-06-23T19:06:23.449Z,2.77
2018-06-23T19:08:52.463Z,2.67
2018-06-23T19:11:22.702Z,4.53
2018-06-23T19:13:51.281Z,3.40
2018-06-23T19:16:22.880Z,4.57
2018-06-23T19:18:53.588Z,3.17
2018-06-23T19:21:23.615Z,3.30
2018-06-23T19:23:51.708Z,3.87
2018-06-23T19:26:21.499Z,3.27
2018-06-23T19:28:50.166Z,1.83
2018-06-23T19:31:18.215Z,5.17
2018-06-23T19:33:46.322Z,4.73
2018-06-23T19:36:14.828Z,4.47
2018-06-23T19:38:43.400Z,4.47
2018-06-23T19:41:26.715Z,3.93
2018-06-23T19:43:55.123Z,3.03
2018-06-23T19:46:23.549Z,6.87
2018-06-23T19:48:51.840Z,6.37
2018-06-23T19:51:20.252Z,3.57
2018-06-23T19:53:48.713Z,4.20
2018-06-23T19:56:16.861Z,3.50
2018-06-23T19:58:45.151Z,4.23
2018-06-23T20:01:13.584Z,4.77
2018-06-23T20:03:42.045Z,4.57
2018-06-23T20:06:10.570Z,4.53
2018-06-23T20:08:40.723Z,5.60
2018-06-23T20:11:09.489Z,4.67
2018-06-23T20:13:37.859Z,3.80
2018-06-23T20:16:06.007Z,3.63
2018-06-23T20:18:34.470Z,3.20
2018-06-23T20:21:02.995Z,3.43
2018-06-23T20:23:31.301Z,4.97
2018-06-23T20:26:01.556Z,2.63
2018-06-23T20:28:28.087Z,8.20
2018-06-23T20:30:56.624Z,6.07
2018-06-23T20:33:25.216Z,6.50
2018-06-23T20:35:54.889Z,5.97
2018-06-23T20:38:23.651Z,3.20
2018-06-23T20:40:54.282Z,4.97
2018-06-23T20:43:23.601Z,4.43
2018-06-23T20:45:53.034Z,4.57
2018-06-23T20:48:24.505Z,8.15
2018-06-23T20:51:03.567Z,6.17
2018-06-23T20:53:34.453Z,5.95
2018-06-23T20:56:02.589Z,6.00
2018-06-23T20:58:30.957Z,5.83
2018-06-23T21:00:59.597Z,8.33
2018-06-23T21:03:27.962Z,3.53
2018-06-23T21:05:56.645Z,1.80
2018-06-23T21:08:27.087Z,7.57
2018-06-23T21:11:01.973Z,3.10
2018-06-23T21:13:31.446Z,5.57
2018-06-23T21:16:00.141Z,8.63
2018-06-23T21:18:28.544Z,3.63
2018-06-23T21:20:56.645Z,3.00
2018-06-23T21:23:25.285Z,4.30
2018-06-23T21:25:53.649Z,4.07
2018-06-23T21:28:22.150Z,7.07
2018-06-23T21:30:50.772Z,5.50
2018-06-23T21:33:19.364Z,4.07
2018-06-23T21:35:47.605Z,5.10
2018-06-23T21:38:16.296Z,7.33
2018-06-23T21:40:46.209Z,6.83
2018-06-23T21:43:15.692Z,3.50
2018-06-23T21:45:44.160Z,4.15
2018-06-23T21:48:13.008Z,7.00
2018-06-23T21:50:41.419Z,3.33
2018-06-23T21:53:10.009Z,5.47
2018-06-23T21:55:39.271Z,5.03
2018-06-23T21:58:09.779Z,7.10
2018-06-23T22:00:43.239Z,5.00
2018-06-23T22:06:53.200Z,3.47
2018-06-23T22:09:21.577Z,5.27
2018-06-23T22:11:50.089Z,9.23
2018-06-23T22:14:18.527Z,5.23
2018-06-23T22:16:46.977Z,3.47
2018-06-23T22:19:19.112Z,5.27
2018-06-23T22:21:47.363Z,3.33
2018-06-23T22:24:15.804Z,7.80
2018-06-23T22:26:44.123Z,4.60
2018-06-23T22:29:12.495Z,5.93
2018-06-23T22:31:40.858Z,6.97
2018-06-23T22:34:09.260Z,10.98
2018-06-23T22:36:37.660Z,3.50
2018-06-23T22:39:07.526Z,5.53
2018-06-23T22:41:35.864Z,5.07
2018-06-23T22:44:03.984Z,6.60
2018-06-23T22:46:32.369Z,3.80
2018-06-23T22:49:00.804Z,10.10
2018-06-23T22:51:29.356Z,8.77
2018-06-23T22:53:57.677Z,6.00
2018-06-23T22:56:26.047Z,5.77
2018-06-23T22:58:54.443Z,4.07
2018-06-23T23:01:22.783Z,5.20
2018-06-23T23:03:51.123Z,5.30
2018-06-23T23:06:19.603Z,5.50
2018-06-23T23:08:47.973Z,5.70
2018-06-23T23:11:16.414Z,6.07
2018-06-23T23:13:44.538Z,5.40
2018-06-23T23:16:12.835Z,3.40
2018-06-23T23:18:41.161Z,7.90
2018-06-23T23:21:09.806Z,5.87
2018-06-23T23:23:38.123Z,5.03
2018-06-23T23:26:06.471Z,6.73
2018-06-23T23:28:34.816Z,2.77
2018-06-23T23:31:03.152Z,9.80
2018-06-23T23:33:31.465Z,7.17
2018-06-23T23:36:01.043Z,5.65
2018-06-23T23:38:28.165Z,6.10
2018-06-23T23:40:56.221Z,13.57
2018-06-23T23:43:24.586Z,5.03
2018-06-23T23:45:52.927Z,7.37
2018-06-23T23:48:21.247Z,10.95
2018-06-23T23:50:49.637Z,5.77
2018-06-23T23:53:17.943Z,5.90
2018-06-23T23:55:45.972Z,6.67
2018-06-23T23:58:14.327Z,6.97
